Barfleur — FNIE — position and weather

sailwx.info

Track history (hours):
 
Tides and Currents Weather Stations Pressure Air Temp Water Temp Dewpoint Dewpoint Depression Visibility Wind Speed Wind Dir Waves Ship Positions

Barfleur

Operator: Brittany Ferries

Last reported at 2016-Sep-26 01:33 UTC. Time now 2016-Sep-26 01:58 UTC.
Position N 50°42' W 001°59'.

Length 158 m; draft 5 m.

Type: Passenger vessel. MMSI: 227289000.

Date/timePositionNaut miles runAvg speedWind from/ knotsBaromVisibWave heightAir tempDewpointWater temp
2016-Sep-26 01:33N 50°42' W 001°59'0 0.0
2016-Sep-26 00:33N 50°42' W 001°59'0 0.0
2016-Sep-25 21:34N 50°42' W 001°59'2 0.1
2016-Sep-25 07:34N 50°41' W 001°57'2 0.6
2016-Sep-25 04:34N 50°42' W 001°59'0 0.0
2016-Sep-25 00:33N 50°42' W 001°59'0 0.0
2016-Sep-24 22:34N 50°42' W 001°59'0 0.0
2016-Sep-24 21:33N 50°42' W 001°59'10 5.2
2016-Sep-24 19:33N 50°33' W 001°52'10 0.7
2016-Sep-24 03:33N 50°42' W 001°59'0 0.0
2016-Sep-24 02:33N 50°42' W 001°59'0 0.0
2016-Sep-24 01:33N 50°42' W 001°59'0 0.0
2016-Sep-24 00:33N 50°42' W 001°59'12 2.4
2016-Sep-23 19:30N 50°31' W 001°52'12 0.9
2016-Sep-23 06:33N 50°42' W 001°59'0 0.0
2016-Sep-23 04:33N 50°42' W 001°59'0 0.0
2016-Sep-23 03:33N 50°42' W 001°59'0 0.0
2016-Sep-23 02:33N 50°42' W 001°59'0 0.0
2016-Sep-23 01:33N 50°42' W 001°59'0 0.0
2016-Sep-23 00:33N 50°42' W 001°59'0 0.0
2016-Sep-22 23:33N 50°42' W 001°59'0 0.0
2016-Sep-22 20:33N 50°42' W 001°59'13 0.8
2016-Sep-22 04:32N 50°30' W 001°51'4611.1
2016-Sep-22 00:21N 49°46' W 001°32'48 3.0
2016-Sep-21 08:33N 50°32' W 001°53'11 3.6
2016-Sep-21 05:33N 50°42' W 001°58'12 0.6
2016-Sep-20 08:30N 50°30' W 001°52'1213.3
2016-Sep-20 07:33N 50°42' W 001°58'1 1.0
2016-Sep-20 06:33N 50°42' W 001°59'0 0.0
2016-Sep-20 02:33N 50°42' W 001°59'0 0.0
2016-Sep-19 23:33N 50°42' W 001°59'12 3.0
2016-Sep-19 19:33N 50°32' W 001°51'11 0.9
2016-Sep-19 07:33N 50°42' W 001°58'1 1.1
2016-Sep-19 06:34N 50°42' W 001°59'0 0.0
2016-Sep-19 03:33N 50°42' W 001°59'0 0.0
2016-Sep-19 02:34N 50°42' W 001°59'0 0.0
2016-Sep-19 00:34N 50°42' W 001°59'11 2.1
2016-Sep-18 19:34N 50°33' W 001°52'11 0.6
2016-Sep-18 02:34N 50°42' W 001°59'0 0.0
2016-Sep-18 01:33N 50°42' W 001°59'0 0.0
2016-Sep-18 00:33N 50°42' W 001°59'0 0.0
2016-Sep-17 22:34N 50°42' W 001°59'0 0.0
2016-Sep-17 21:33N 50°42' W 001°59'0 0.3
2016-Sep-17 20:34N 50°42' W 001°59'14 1.2
2016-Sep-17 08:27N 50°29' W 001°50'1314.7
2016-Sep-17 07:34N 50°42' W 001°57'1 0.7
2016-Sep-17 05:34N 50°42' W 001°59'0 0.0
2016-Sep-17 04:34N 50°42' W 001°59'0 0.0
2016-Sep-17 00:34N 50°42' W 001°59'0 0.0
2016-Sep-16 07:33N 50°42' W 001°59'0 0.0
2016-Sep-16 03:33N 50°42' W 001°59'0 0.0
2016-Sep-16 02:33N 50°42' W 001°59'  
Track history (hours):
 
Tides and Currents Weather Stations Pressure Air Temp Water Temp Dewpoint Dewpoint Depression Visibility Wind Speed Wind Dir Waves Ship Positions

Barfleur

Operator: Brittany Ferries

Last reported at 2016-Sep-26 01:33 UTC. Time now 2016-Sep-26 01:58 UTC.
Position N 50°42' W 001°59'.

Length 158 m; draft 5 m.

Type: Passenger vessel. MMSI: 227289000.

Date/timePositionNaut miles runAvg speedWind from/ knotsBaromVisibWave heightAir tempDewpointWater temp
2016-Sep-26 01:33N 50°42' W 001°59'0 0.0
2016-Sep-26 00:33N 50°42' W 001°59'0 0.0
2016-Sep-25 21:34N 50°42' W 001°59'2 0.1
2016-Sep-25 07:34N 50°41' W 001°57'2 0.6
2016-Sep-25 04:34N 50°42' W 001°59'0 0.0
2016-Sep-25 00:33N 50°42' W 001°59'0 0.0
2016-Sep-24 22:34N 50°42' W 001°59'0 0.0
2016-Sep-24 21:33N 50°42' W 001°59'10 5.2
2016-Sep-24 19:33N 50°33' W 001°52'10 0.7
2016-Sep-24 03:33N 50°42' W 001°59'0 0.0
2016-Sep-24 02:33N 50°42' W 001°59'0 0.0
2016-Sep-24 01:33N 50°42' W 001°59'0 0.0
2016-Sep-24 00:33N 50°42' W 001°59'12 2.4
2016-Sep-23 19:30N 50°31' W 001°52'12 0.9
2016-Sep-23 06:33N 50°42' W 001°59'0 0.0
2016-Sep-23 04:33N 50°42' W 001°59'0 0.0
2016-Sep-23 03:33N 50°42' W 001°59'0 0.0
2016-Sep-23 02:33N 50°42' W 001°59'0 0.0
2016-Sep-23 01:33N 50°42' W 001°59'0 0.0
2016-Sep-23 00:33N 50°42' W 001°59'0 0.0
2016-Sep-22 23:33N 50°42' W 001°59'0 0.0
2016-Sep-22 20:33N 50°42' W 001°59'13 0.8
2016-Sep-22 04:32N 50°30' W 001°51'4611.1
2016-Sep-22 00:21N 49°46' W 001°32'48 3.0
2016-Sep-21 08:33N 50°32' W 001°53'11 3.6
2016-Sep-21 05:33N 50°42' W 001°58'12 0.6
2016-Sep-20 08:30N 50°30' W 001°52'1213.3
2016-Sep-20 07:33N 50°42' W 001°58'1 1.0
2016-Sep-20 06:33N 50°42' W 001°59'0 0.0
2016-Sep-20 02:33N 50°42' W 001°59'0 0.0
2016-Sep-19 23:33N 50°42' W 001°59'12 3.0
2016-Sep-19 19:33N 50°32' W 001°51'11 0.9
2016-Sep-19 07:33N 50°42' W 001°58'1 1.1
2016-Sep-19 06:34N 50°42' W 001°59'0 0.0
2016-Sep-19 03:33N 50°42' W 001°59'0 0.0
2016-Sep-19 02:34N 50°42' W 001°59'0 0.0
2016-Sep-19 00:34N 50°42' W 001°59'11 2.1
2016-Sep-18 19:34N 50°33' W 001°52'11 0.6
2016-Sep-18 02:34N 50°42' W 001°59'0 0.0
2016-Sep-18 01:33N 50°42' W 001°59'0 0.0
2016-Sep-18 00:33N 50°42' W 001°59'0 0.0
2016-Sep-17 22:34N 50°42' W 001°59'0 0.0
2016-Sep-17 21:33N 50°42' W 001°59'0 0.3
2016-Sep-17 20:34N 50°42' W 001°59'14 1.2
2016-Sep-17 08:27N 50°29' W 001°50'1314.7
2016-Sep-17 07:34N 50°42' W 001°57'1 0.7
2016-Sep-17 05:34N 50°42' W 001°59'0 0.0
2016-Sep-17 04:34N 50°42' W 001°59'0 0.0
2016-Sep-17 00:34N 50°42' W 001°59'0 0.0
2016-Sep-16 07:33N 50°42' W 001°59'0 0.0
2016-Sep-16 03:33N 50°42' W 001°59'0 0.0
2016-Sep-16 02:33N 50°42' W 001°59'  

Dump ship's entire track history